Time;durP1;ratioP1;P1;durP2;ratioP2;P2;SDS_P1;SDS_P2;PMS_P1;PMS_P2;Temp;Humidity;BMP_temperature;BMP_pressure;BME280_temperature;BME280_humidity;BME280_pressure;Samples;Min_cycle;Max_cycle;Signal;HPM_P1;HPM_P2
2022/11/29 00:01:38;;;;;;;27.15;14.70;;;;;15.50;101257.00;;;;5012685;28;20251;-78
2022/11/29 00:04:06;;;;;;;29.23;14.70;;;;;15.50;101256.00;;;;5007166;28;20197;-79
2022/11/29 00:06:35;;;;;;;28.55;15.20;;;;;15.50;101248.00;;;;5017416;28;20192;-79
2022/11/29 00:09:06;;;;;;;30.20;14.32;;;;;15.50;101258.00;;;;5008297;28;20204;-79
2022/11/29 00:14:21;;;;;;;26.20;14.00;;;;;15.50;101258.00;;;;5009701;28;20208;-78
2022/11/29 00:16:52;;;;;;;24.45;13.15;;;;;15.40;101259.00;;;;5007067;28;20201;-78
2022/11/29 00:19:19;;;;;;;25.55;13.48;;;;;15.50;101261.00;;;;5009425;28;20263;-78
2022/11/29 00:21:47;;;;;;;26.38;14.98;;;;;15.40;101258.00;;;;5024643;28;20209;-78
2022/11/29 00:24:15;;;;;;;26.58;13.93;;;;;15.40;101261.00;;;;5020092;28;20201;-79
2022/11/29 00:26:42;;;;;;;26.55;13.93;;;;;15.50;101267.00;;;;5010075;28;20374;-79
2022/11/29 00:29:11;;;;;;;26.10;13.50;;;;;15.40;101268.00;;;;5010620;28;20196;-79
2022/11/29 00:31:39;;;;;;;25.17;14.15;;;;;15.40;101273.00;;;;5008704;28;20217;-79
2022/11/29 00:34:07;;;;;;;24.23;14.10;;;;;15.40;101258.00;;;;5010318;28;20205;-79
2022/11/29 00:36:35;;;;;;;26.73;13.23;;;;;15.40;101266.00;;;;5009753;28;21576;-79
2022/11/29 00:39:05;;;;;;;23.20;13.77;;;;;15.40;101266.00;;;;5007192;28;20667;-79
2022/11/29 00:41:32;;;;;;;26.13;14.13;;;;;15.40;101261.00;;;;5005753;28;20204;-79
2022/11/29 00:44:00;;;;;;;24.63;14.23;;;;;15.40;101263.00;;;;5008665;28;20192;-79
2022/11/29 00:46:27;;;;;;;20.38;12.77;;;;;15.40;101269.00;;;;5011557;28;20201;-79
2022/11/29 00:48:54;;;;;;;26.90;12.73;;;;;15.40;101264.00;;;;5009859;28;20209;-78
2022/11/29 00:51:22;;;;;;;26.15;13.20;;;;;15.40;101264.00;;;;5010375;28;20229;-79
2022/11/29 00:53:49;;;;;;;24.30;13.15;;;;;15.40;101256.00;;;;5007577;28;20240;-79
2022/11/29 00:56:17;;;;;;;19.00;11.88;;;;;15.40;101259.00;;;;5007389;28;20200;-79
2022/11/29 00:58:47;;;;;;;23.40;13.45;;;;;15.40;101259.00;;;;5003004;28;20225;-79
2022/11/29 01:01:16;;;;;;;23.80;12.02;;;;;15.40;101261.00;;;;5007251;28;20205;-79
2022/11/29 01:03:43;;;;;;;22.88;12.65;;;;;15.40;101259.00;;;;5006694;28;20266;-79
2022/11/29 01:06:13;;;;;;;23.27;12.52;;;;;15.40;101261.00;;;;5010852;28;20983;-79
2022/11/29 01:08:40;;;;;;;21.83;12.48;;;;;15.40;101264.00;;;;5008384;28;20197;-79
2022/11/29 01:11:12;;;;;;;24.10;12.63;;;;;15.30;101264.00;;;;5008052;28;20228;-79
2022/11/29 01:13:42;;;;;;;22.70;12.13;;;;;15.30;101265.00;;;;5011284;28;20219;-79
2022/11/29 01:16:09;;;;;;;18.52;11.73;;;;;15.30;101265.00;;;;5004964;28;20193;-79
2022/11/29 01:18:38;;;;;;;18.15;11.90;;;;;15.30;101269.00;;;;5008271;28;20201;-79
2022/11/29 01:21:08;;;;;;;22.75;11.85;;;;;15.30;101267.00;;;;5010486;28;20205;-79
2022/11/29 01:23:35;;;;;;;20.63;13.15;;;;;15.30;101274.00;;;;5009159;28;20216;-79
2022/11/29 01:26:06;;;;;;;26.98;14.73;;;;;15.30;101279.00;;;;5005801;28;20586;-79
2022/11/29 01:28:34;;;;;;;19.15;11.90;;;;;15.30;101272.00;;;;5006798;28;20200;-79
2022/11/29 01:31:07;;;;;;;21.15;13.32;;;;;15.20;101280.00;;;;5010592;28;20614;-79
2022/11/29 01:33:34;;;;;;;19.67;12.27;;;;;15.30;101287.00;;;;5012604;28;20259;-79
2022/11/29 01:36:02;;;;;;;18.20;12.45;;;;;15.30;101291.00;;;;5010660;28;20228;-79
2022/11/29 01:38:30;;;;;;;23.45;11.93;;;;;15.30;101293.00;;;;5006495;28;20663;-79
2022/11/29 01:40:59;;;;;;;17.92;11.55;;;;;15.30;101286.00;;;;5004806;28;20236;-79
2022/11/29 01:43:27;;;;;;;22.55;11.23;;;;;15.30;101295.00;;;;5008684;28;20196;-79
2022/11/29 01:45:54;;;;;;;22.65;12.30;;;;;15.30;101290.00;;;;5004210;28;20200;-79
2022/11/29 01:48:27;;;;;;;16.60;11.68;;;;;15.20;101305.00;;;;5003958;28;20212;-79
2022/11/29 01:50:57;;;;;;;16.98;11.90;;;;;15.20;101300.00;;;;5005989;28;20232;-79
2022/11/29 01:53:24;;;;;;;17.10;11.93;;;;;15.20;101294.00;;;;5007573;28;20193;-79
2022/11/29 01:55:56;;;;;;;17.05;11.77;;;;;15.20;101298.00;;;;5014083;28;20201;-79
2022/11/29 01:58:23;;;;;;;16.23;10.90;;;;;15.20;101299.00;;;;5023447;28;20251;-79
2022/11/29 02:00:50;;;;;;;17.92;11.25;;;;;15.20;101292.00;;;;5017591;28;20185;-78
2022/11/29 02:03:19;;;;;;;18.92;11.20;;;;;15.20;101307.00;;;;5028787;28;20216;-79
2022/11/29 02:05:50;;;;;;;14.75;10.02;;;;;15.20;101303.00;;;;5017650;28;20601;-79
2022/11/29 02:08:23;;;;;;;14.77;9.77;;;;;15.20;101309.00;;;;5009076;28;20651;-79
2022/11/29 02:11:04;;;;;;;17.45;11.15;;;;;15.20;101306.00;;;;5005363;28;20674;-79
2022/11/29 02:13:42;;;;;;;14.00;9.63;;;;;15.20;101310.00;;;;5006056;28;20663;-79
2022/11/29 02:16:20;;;;;;;17.02;9.82;;;;;15.20;101310.00;;;;5005608;28;20682;-79
2022/11/29 02:18:56;;;;;;;16.67;11.18;;;;;15.20;101306.00;;;;5007235;28;20203;-79
2022/11/29 02:21:33;;;;;;;14.05;9.35;;;;;15.10;101304.00;;;;5007794;28;20651;-79
2022/11/29 02:24:33;;;;;;;16.40;10.20;;;;;15.10;101297.00;;;;5007664;28;20200;-79
2022/11/29 02:27:17;;;;;;;18.48;9.73;;;;;15.10;101305.00;;;;5008380;28;20197;-80
2022/11/29 02:30:19;;;;;;;15.65;10.02;;;;;15.00;101303.00;;;;5008679;28;20553;-79
2022/11/29 02:33:25;;;;;;;16.25;10.82;;;;;15.00;101306.00;;;;4978226;28;20224;-79
2022/11/29 02:36:12;;;;;;;15.05;9.70;;;;;15.00;101308.00;;;;5007580;28;20228;-80
2022/11/29 02:39:14;;;;;;;14.07;9.23;;;;;15.00;101309.00;;;;5023196;28;20224;-80
2022/11/29 02:41:55;;;;;;;15.13;9.68;;;;;15.10;101312.00;;;;5008492;28;20725;-79
2022/11/29 02:44:58;;;;;;;15.80;10.25;;;;;15.00;101308.00;;;;5013792;28;20204;-79
2022/11/29 02:47:32;;;;;;;16.33;10.65;;;;;15.10;101318.00;;;;5009168;28;20671;-79
2022/11/29 02:50:23;;;;;;;14.07;9.32;;;;;15.00;101318.00;;;;5013331;28;20200;-79
2022/11/29 02:53:01;;;;;;;14.98;8.98;;;;;15.10;101321.00;;;;5018167;28;20236;-79
2022/11/29 02:55:33;;;;;;;15.05;10.32;;;;;15.10;101322.00;;;;5015014;28;20196;-79
2022/11/29 02:58:09;;;;;;;15.10;10.43;;;;;15.10;101324.00;;;;5009593;28;20200;-79
2022/11/29 03:00:41;;;;;;;17.98;10.20;;;;;15.10;101325.00;;;;5009833;28;20204;-79
2022/11/29 03:03:14;;;;;;;17.08;10.95;;;;;15.10;101338.00;;;;5019652;28;20212;-79
2022/11/29 03:05:49;;;;;;;19.08;11.05;;;;;15.10;101334.00;;;;5015771;28;20629;-80
2022/11/29 03:08:24;;;;;;;17.17;10.07;;;;;15.10;101332.00;;;;5008258;28;20193;-79
2022/11/29 03:11:01;;;;;;;20.45;11.15;;;;;15.00;101336.00;;;;5006013;28;20211;-79
2022/11/29 03:13:44;;;;;;;16.70;10.55;;;;;15.00;101331.00;;;;5004935;28;20208;-79
2022/11/29 03:16:22;;;;;;;16.83;10.23;;;;;15.00;101337.00;;;;5007853;28;20209;-79
2022/11/29 03:19:04;;;;;;;14.18;9.45;;;;;15.00;101342.00;;;;5017499;28;20200;-80
2022/11/29 03:21:41;;;;;;;15.15;10.75;;;;;15.00;101351.00;;;;5006785;28;20201;-79
2022/11/29 03:24:14;;;;;;;14.35;9.52;;;;;15.00;101346.00;;;;5009422;28;20757;-79
2022/11/29 03:26:45;;;;;;;15.65;9.82;;;;;15.10;101351.00;;;;5020186;28;20274;-79
2022/11/29 03:29:19;;;;;;;17.55;9.80;;;;;15.00;101365.00;;;;5007325;28;20200;-80
2022/11/29 03:31:52;;;;;;;13.80;8.68;;;;;15.00;101359.00;;;;5003969;28;20216;-79
2022/11/29 03:34:27;;;;;;;13.30;9.82;;;;;15.00;101367.00;;;;5015565;28;20224;-79
2022/11/29 03:37:00;;;;;;;13.48;8.70;;;;;15.00;101366.00;;;;5007762;28;20211;-79
2022/11/29 03:39:33;;;;;;;21.75;10.20;;;;;15.00;101370.00;;;;5004182;28;20196;-80
2022/11/29 03:42:04;;;;;;;15.18;9.15;;;;;15.00;101371.00;;;;5001702;28;20204;-79
2022/11/29 03:44:36;;;;;;;15.25;10.60;;;;;15.00;101372.00;;;;5006278;28;20231;-80
2022/11/29 03:47:08;;;;;;;14.82;9.30;;;;;15.00;101367.00;;;;5004243;28;21867;-79
2022/11/29 03:49:40;;;;;;;16.67;9.75;;;;;15.00;101372.00;;;;5002068;28;20215;-79
2022/11/29 03:52:17;;;;;;;13.57;9.88;;;;;15.00;101371.00;;;;5003625;28;20224;-79
2022/11/29 03:54:56;;;;;;;15.55;9.68;;;;;15.00;101384.00;;;;5014731;28;20200;-79
2022/11/29 03:57:31;;;;;;;17.98;9.63;;;;;15.00;101385.00;;;;5016416;28;20196;-79
2022/11/29 04:00:04;;;;;;;14.73;10.32;;;;;15.00;101389.00;;;;5003552;28;20223;-79
2022/11/29 04:03:11;;;;;;;15.57;9.82;;;;;14.90;101381.00;;;;5002515;28;20193;-79
2022/11/29 04:06:10;;;;;;;14.77;8.98;;;;;14.90;101401.00;;;;5005744;28;20207;-79
2022/11/29 04:08:57;;;;;;;16.52;8.98;;;;;14.90;101393.00;;;;5005580;28;20702;-79
2022/11/29 04:11:57;;;;;;;14.45;9.38;;;;;14.90;101389.00;;;;5007251;28;20224;-79
2022/11/29 04:15:13;;;;;;;14.20;8.52;;;;;14.80;101397.00;;;;5002197;28;20280;-79
2022/11/29 04:18:11;;;;;;;15.38;9.30;;;;;14.90;101389.00;;;;5021091;28;20986;-79
2022/11/29 04:20:59;;;;;;;13.90;9.20;;;;;14.90;101391.00;;;;4963497;28;20203;-79
2022/11/29 04:24:00;;;;;;;17.45;9.75;;;;;14.80;101391.00;;;;5007646;28;20212;-79
2022/11/29 04:27:05;;;;;;;14.73;8.20;;;;;14.80;101396.00;;;;5007243;28;20195;-79
2022/11/29 04:30:03;;;;;;;15.30;7.75;;;;;14.80;101394.00;;;;5010100;28;20211;-79
2022/11/29 04:33:02;;;;;;;17.17;8.27;;;;;14.80;101394.00;;;;5001365;28;20730;-79
2022/11/29 04:35:48;;;;;;;14.82;7.88;;;;;14.80;101398.00;;;;5004813;28;20233;-79
2022/11/29 04:38:57;;;;;;;19.70;9.43;;;;;14.80;101391.00;;;;5006364;28;20208;-79
2022/11/29 04:42:01;;;;;;;15.82;8.70;;;;;14.80;101400.00;;;;5007900;28;20193;-79
2022/11/29 04:44:52;;;;;;;14.43;9.02;;;;;14.80;101396.00;;;;5005634;28;20204;-79
2022/11/29 04:47:41;;;;;;;16.48;8.27;;;;;14.80;101401.00;;;;5009422;28;20203;-80
2022/11/29 04:50:33;;;;;;;16.02;9.52;;;;;14.80;101409.00;;;;5012462;28;20221;-79
2022/11/29 04:53:25;;;;;;;18.40;9.55;;;;;14.80;101411.00;;;;5010663;28;20232;-79
2022/11/29 04:56:03;;;;;;;14.68;8.77;;;;;14.80;101420.00;;;;5012169;28;20264;-79
2022/11/29 04:58:37;;;;;;;14.68;9.20;;;;;14.80;101422.00;;;;5007717;28;20217;-79
2022/11/29 05:01:14;;;;;;;15.93;9.05;;;;;14.80;101421.00;;;;5008484;28;20212;-79
2022/11/29 05:03:47;;;;;;;15.88;9.30;;;;;14.90;101430.00;;;;5007420;28;20212;-79
2022/11/29 05:06:23;;;;;;;14.90;8.65;;;;;14.80;101430.00;;;;5012764;28;20197;-79
2022/11/29 05:08:59;;;;;;;16.95;8.63;;;;;14.90;101438.00;;;;5006850;28;20200;-79
2022/11/29 05:11:41;;;;;;;16.23;9.57;;;;;14.80;101439.00;;;;5008514;28;20288;-79
2022/11/29 05:14:16;;;;;;;13.48;9.30;;;;;14.90;101447.00;;;;5005033;28;20200;-79
2022/11/29 05:16:48;;;;;;;16.65;9.23;;;;;14.90;101449.00;;;;5008987;28;20224;-79
2022/11/29 05:19:48;;;;;;;15.05;8.93;;;;;14.80;101438.00;;;;5009408;28;20205;-79
2022/11/29 05:22:27;;;;;;;12.48;7.80;;;;;14.80;101443.00;;;;5006284;28;20211;-79
2022/11/29 05:25:13;;;;;;;12.25;7.93;;;;;14.80;101447.00;;;;5007646;28;20788;-79
2022/11/29 05:27:47;;;;;;;13.95;9.15;;;;;14.80;101455.00;;;;5003407;28;20320;-79
2022/11/29 05:30:17;;;;;;;14.88;8.63;;;;;14.90;101457.00;;;;5011203;28;20650;-79
2022/11/29 05:32:56;;;;;;;20.15;8.48;;;;;14.80;101460.00;;;;5004520;28;20598;-79
2022/11/29 05:35:52;;;;;;;14.45;8.25;;;;;14.80;101458.00;;;;5010695;28;20227;-79
2022/11/29 05:38:48;;;;;;;15.18;8.48;;;;;14.80;101464.00;;;;5005308;28;20197;-79
2022/11/29 05:41:26;;;;;;;16.65;8.82;;;;;14.80;101465.00;;;;5012487;28;20200;-79
2022/11/29 05:44:04;;;;;;;12.20;8.48;;;;;14.80;101466.00;;;;5009119;28;20200;-79
2022/11/29 05:46:37;;;;;;;14.88;9.02;;;;;14.90;101472.00;;;;5013957;28;20197;-79
2022/11/29 05:49:15;;;;;;;19.17;8.43;;;;;14.80;101485.00;;;;5014979;28;20188;-79
2022/11/29 05:51:50;;;;;;;13.27;8.07;;;;;14.90;101477.00;;;;5005951;28;20208;-80
2022/11/29 05:54:26;;;;;;;14.48;9.15;;;;;14.80;101476.00;;;;5009295;28;20577;-79
2022/11/29 05:57:03;;;;;;;13.05;7.97;;;;;14.90;101481.00;;;;5010148;28;20196;-80
2022/11/29 05:59:33;;;;;;;14.90;8.68;;;;;14.90;101481.00;;;;5004922;28;20710;-79
2022/11/29 06:02:11;;;;;;;15.57;8.80;;;;;14.90;101484.00;;;;5005101;28;20833;-79
2022/11/29 06:04:51;;;;;;;18.10;9.43;;;;;14.80;101484.00;;;;5007163;28;20568;-79
2022/11/29 06:07:22;;;;;;;13.07;8.32;;;;;14.90;101495.00;;;;5006650;28;20220;-79
2022/11/29 06:09:56;;;;;;;11.35;7.90;;;;;14.90;101492.00;;;;5006617;28;20192;-79
2022/11/29 06:12:25;;;;;;;13.05;8.40;;;;;14.90;101491.00;;;;5006956;28;20316;-79
2022/11/29 06:15:29;;;;;;;13.85;8.43;;;;;14.80;101488.00;;;;5006774;28;20271;-79
2022/11/29 06:18:15;;;;;;;12.27;8.10;;;;;14.80;101496.00;;;;5007274;28;20203;-79
2022/11/29 06:21:02;;;;;;;19.33;8.75;;;;;14.80;101496.00;;;;5020698;28;20577;-80
2022/11/29 06:24:04;;;;;;;14.88;7.93;;;;;14.80;101500.00;;;;5014124;28;20194;-80
2022/11/29 06:26:56;;;;;;;11.68;7.95;;;;;14.80;101503.00;;;;5004978;28;20201;-80
2022/11/29 06:29:35;;;;;;;17.13;8.45;;;;;14.80;101510.00;;;;5005743;28;20263;-79
2022/11/29 06:32:17;;;;;;;15.90;8.20;;;;;14.80;101521.00;;;;5011069;28;20211;-79
2022/11/29 06:34:53;;;;;;;11.90;7.78;;;;;14.80;101527.00;;;;5007240;28;20231;-80
2022/11/29 06:37:25;;;;;;;16.58;8.85;;;;;14.90;101531.00;;;;5013508;28;20197;-80
2022/11/29 06:39:53;;;;;;;13.68;8.13;;;;;14.90;101537.00;;;;5015098;28;20209;-79
2022/11/29 06:42:21;;;;;;;14.18;8.52;;;;;14.90;101539.00;;;;5020676;28;20197;-79
2022/11/29 06:44:48;;;;;;;12.35;7.63;;;;;14.90;101539.00;;;;5024593;28;20201;-79
2022/11/29 06:47:25;;;;;;;12.18;8.07;;;;;14.80;101537.00;;;;5011670;28;20201;-79
2022/11/29 06:49:58;;;;;;;14.93;8.25;;;;;14.80;101539.00;;;;5012267;28;20620;-79
2022/11/29 06:52:36;;;;;;;10.68;7.30;;;;;14.80;101532.00;;;;5014972;28;20229;-79
2022/11/29 06:55:14;;;;;;;11.48;7.30;;;;;14.80;101535.00;;;;5019629;28;20189;-79
2022/11/29 06:57:59;;;;;;;11.63;8.05;;;;;14.80;101538.00;;;;5015308;28;20200;-81
2022/11/29 07:00:32;;;;;;;12.55;7.28;;;;;14.80;101546.00;;;;5009883;28;20197;-81
2022/11/29 07:03:24;;;;;;;13.00;9.00;;;;;14.80;101544.00;;;;5025137;28;20197;-79
2022/11/29 07:05:52;;;;;;;12.15;7.20;;;;;14.90;101553.00;;;;5015352;28;20209;-80
2022/11/29 07:08:22;;;;;;;13.38;8.25;;;;;14.80;101546.00;;;;5011793;28;20193;-80
2022/11/29 07:10:53;;;;;;;13.63;7.85;;;;;14.80;101552.00;;;;5022292;28;20208;-80
2022/11/29 07:13:21;;;;;;;14.98;7.93;;;;;14.80;101569.00;;;;5025501;28;20661;-80
2022/11/29 07:15:57;;;;;;;12.77;8.18;;;;;14.80;101567.00;;;;5029098;28;20228;-80
2022/11/29 07:18:33;;;;;;;15.93;7.30;;;;;14.80;101579.00;;;;5012559;28;20192;-80
2022/11/29 07:21:14;;;;;;;15.88;7.65;;;;;14.80;101581.00;;;;5009103;28;20223;-80
2022/11/29 07:23:50;;;;;;;12.77;7.10;;;;;14.80;101586.00;;;;5010368;28;20201;-80
2022/11/29 07:26:26;;;;;;;14.35;7.53;;;;;14.80;101587.00;;;;5013129;28;20259;-79
2022/11/29 07:29:20;;;;;;;12.75;6.75;;;;;14.70;101588.00;;;;5022792;28;20206;-80
2022/11/29 07:31:58;;;;;;;13.05;7.20;;;;;14.70;101595.00;;;;5023330;28;20570;-80
2022/11/29 07:34:35;;;;;;;12.18;6.78;;;;;14.70;101614.00;;;;5006716;28;20235;-80
2022/11/29 07:37:10;;;;;;;11.40;6.35;;;;;14.70;101606.00;;;;5020482;28;20207;-79
2022/11/29 07:39:45;;;;;;;11.50;6.22;;;;;14.70;101608.00;;;;5008646;28;20228;-79
2022/11/29 07:42:23;;;;;;;12.70;6.60;;;;;14.70;101614.00;;;;5014741;28;20204;-80
2022/11/29 07:45:00;;;;;;;10.73;5.68;;;;;14.70;101619.00;;;;5016248;28;20193;-80
2022/11/29 07:47:27;;;;;;;10.85;5.95;;;;;14.80;101618.00;;;;5021062;28;20192;-79
2022/11/29 07:49:55;;;;;;;10.68;6.20;;;;;14.80;101617.00;;;;5018305;28;20588;-80
2022/11/29 07:52:25;;;;;;;9.32;5.40;;;;;14.80;101623.00;;;;5009085;28;20573;-80
2022/11/29 07:54:52;;;;;;;10.10;5.82;;;;;14.80;101622.00;;;;5015564;28;20201;-79
2022/11/29 07:57:19;;;;;;;13.27;6.00;;;;;14.80;101627.00;;;;5016607;28;20200;-79
2022/11/29 07:59:47;;;;;;;10.10;5.97;;;;;14.80;101634.00;;;;5019025;28;20223;-78
2022/11/29 08:02:14;;;;;;;14.60;7.72;;;;;14.80;101631.00;;;;5020340;28;20200;-79
2022/11/29 08:04:42;;;;;;;18.35;10.35;;;;;14.70;101628.00;;;;5020787;28;20459;-78
2022/11/29 08:07:17;;;;;;;15.68;7.78;;;;;14.80;101638.00;;;;5025060;28;20173;-79
2022/11/29 08:09:45;;;;;;;11.77;6.68;;;;;14.80;101632.00;;;;5018158;28;20210;-77
2022/11/29 08:12:25;;;;;;;8.30;4.75;;;;;14.70;101641.00;;;;5016792;28;20196;-78
2022/11/29 08:15:02;;;;;;;11.35;5.18;;;;;14.70;101646.00;;;;5023703;28;20196;-79
2022/11/29 08:17:38;;;;;;;7.15;4.38;;;;;14.70;101646.00;;;;5014397;28;20200;-78
2022/11/29 08:20:10;;;;;;;7.82;4.43;;;;;14.70;101635.00;;;;5034581;28;20716;-78
2022/11/29 08:22:38;;;;;;;9.85;4.63;;;;;14.80;101640.00;;;;5023334;28;20196;-78
2022/11/29 08:25:11;;;;;;;7.28;4.15;;;;;14.70;101648.00;;;;5018630;28;20197;-78
2022/11/29 08:27:38;;;;;;;11.00;5.22;;;;;14.80;101644.00;;;;5026028;28;20211;-78
2022/11/29 08:30:07;;;;;;;8.98;5.28;;;;;14.80;101645.00;;;;5020465;28;20187;-78
2022/11/29 08:32:35;;;;;;;7.68;4.38;;;;;14.80;101646.00;;;;5026170;28;20244;-78
2022/11/29 08:35:02;;;;;;;8.20;4.68;;;;;14.80;101642.00;;;;5020241;28;20220;-78
2022/11/29 08:37:30;;;;;;;11.23;5.22;;;;;14.80;101643.00;;;;5015451;28;20651;-79
2022/11/29 08:39:58;;;;;;;9.93;5.32;;;;;14.80;101645.00;;;;5010755;28;20606;-78
2022/11/29 08:42:26;;;;;;;7.53;4.20;;;;;14.80;101657.00;;;;5013235;28;20204;-78
2022/11/29 08:44:53;;;;;;;8.27;4.45;;;;;14.80;101655.00;;;;5020392;28;20627;-79
2022/11/29 08:47:39;;;;;;;11.13;5.13;;;;;14.80;101659.00;;;;5011393;28;20201;-79
2022/11/29 08:50:11;;;;;;;8.65;4.55;;;;;14.80;101657.00;;;;5011409;28;20236;-79
2022/11/29 08:55:45;;;;;;;10.40;5.05;;;;;14.70;101656.00;;;;4985022;28;20268;-79
2022/11/29 08:58:14;;;;;;;8.20;4.78;;;;;14.70;101654.00;;;;4980132;28;20218;-79
2022/11/29 09:00:44;;;;;;;7.13;4.55;;;;;14.70;101659.00;;;;4999523;28;20212;-79
2022/11/29 09:05:58;;;;;;;10.57;4.95;;;;;14.70;101667.00;;;;5015689;28;20328;-79
2022/11/29 09:08:25;;;;;;;12.52;4.85;;;;;14.70;101677.00;;;;5013733;28;20300;-79
2022/11/29 09:10:54;;;;;;;8.63;4.75;;;;;14.70;101678.00;;;;5008369;28;20204;-79
2022/11/29 09:13:22;;;;;;;7.45;4.72;;;;;14.70;101679.00;;;;5022741;28;20228;-80
2022/11/29 09:15:49;;;;;;;8.25;4.97;;;;;14.70;101687.00;;;;5023857;28;20197;-80
2022/11/29 09:18:16;;;;;;;9.88;5.35;;;;;14.70;101686.00;;;;5017510;28;20203;-79
2022/11/29 09:20:44;;;;;;;6.88;4.15;;;;;14.70;101687.00;;;;5020531;28;20216;-79
2022/11/29 09:23:12;;;;;;;10.15;5.60;;;;;14.80;101699.00;;;;5010754;28;20197;-79
2022/11/29 09:25:39;;;;;;;7.45;4.70;;;;;14.80;101700.00;;;;5010496;28;20204;-79
2022/11/29 09:28:08;;;;;;;11.65;5.60;;;;;14.80;101704.00;;;;5008551;28;20201;-79
2022/11/29 09:30:36;;;;;;;9.80;5.60;;;;;14.80;101700.00;;;;5011301;28;20201;-79
2022/11/29 09:33:04;;;;;;;12.32;6.05;;;;;14.90;101707.00;;;;5015460;28;20239;-80
2022/11/29 09:35:32;;;;;;;9.43;5.03;;;;;14.90;101706.00;;;;5011998;28;20240;-79
2022/11/29 09:37:59;;;;;;;8.52;5.45;;;;;14.90;101709.00;;;;5021813;28;20216;-80
2022/11/29 09:40:31;;;;;;;7.63;4.82;;;;;14.90;101712.00;;;;5018649;28;20200;-79
2022/11/29 09:43:06;;;;;;;10.32;5.22;;;;;15.00;101709.00;;;;5012104;28;20683;-79
2022/11/29 09:45:39;;;;;;;8.73;4.68;;;;;14.90;101711.00;;;;5029141;28;20210;-79
2022/11/29 09:48:35;;;;;;;7.78;4.68;;;;;14.90;101713.00;;;;5029615;28;20211;-79
2022/11/29 09:51:16;;;;;;;7.45;4.28;;;;;15.00;101712.00;;;;4979117;28;20216;-79
2022/11/29 09:53:59;;;;;;;8.20;5.22;;;;;15.00;101717.00;;;;5011448;28;20653;-79
2022/11/29 09:56:32;;;;;;;9.77;5.03;;;;;15.10;101719.00;;;;5010564;28;20204;-79
2022/11/29 09:59:04;;;;;;;10.02;4.88;;;;;15.10;101718.00;;;;5010495;28;20216;-79
2022/11/29 10:01:38;;;;;;;8.00;4.82;;;;;15.10;101734.00;;;;5017147;28;20278;-79
2022/11/29 10:04:10;;;;;;;8.50;4.88;;;;;15.20;101727.00;;;;5021782;28;20203;-79
2022/11/29 10:06:43;;;;;;;11.60;5.47;;;;;15.20;101739.00;;;;5019729;28;20192;-79
2022/11/29 10:09:20;;;;;;;10.95;5.18;;;;;15.20;101735.00;;;;5029196;28;20201;-79
2022/11/29 10:11:58;;;;;;;9.38;4.72;;;;;15.20;101742.00;;;;5025264;28;20200;-79
2022/11/29 10:14:31;;;;;;;9.20;4.50;;;;;15.30;101747.00;;;;5019418;28;20304;-79
2022/11/29 10:17:07;;;;;;;10.55;4.50;;;;;15.30;101736.00;;;;5020617;28;20458;-79
2022/11/29 10:19:38;;;;;;;8.38;5.30;;;;;15.40;101735.00;;;;5008850;28;20591;-79
2022/11/29 10:22:15;;;;;;;9.02;5.68;;;;;15.40;101741.00;;;;5009868;28;20714;-79
2022/11/29 10:24:46;;;;;;;9.93;5.97;;;;;15.40;101742.00;;;;5007963;28;20213;-79
2022/11/29 10:27:18;;;;;;;10.05;5.22;;;;;15.40;101731.00;;;;5019507;28;20205;-79
2022/11/29 10:29:49;;;;;;;7.35;4.38;;;;;15.40;101734.00;;;;5029448;28;20197;-79
2022/11/29 10:32:20;;;;;;;9.00;5.55;;;;;15.40;101734.00;;;;5024681;28;20200;-79
2022/11/29 10:34:48;;;;;;;8.35;5.55;;;;;15.40;101739.00;;;;5013917;28;20235;-79
2022/11/29 10:37:19;;;;;;;11.18;5.60;;;;;15.40;101733.00;;;;5007520;28;20578;-79
2022/11/29 10:39:49;;;;;;;9.02;5.70;;;;;15.40;101737.00;;;;5009161;28;20212;-79
2022/11/29 10:45:00;;;;;;;8.55;5.25;;;;;15.50;101735.00;;;;5007881;28;20694;-79
2022/11/29 10:47:29;;;;;;;8.60;5.22;;;;;15.50;101733.00;;;;5022085;28;20681;-78
2022/11/29 10:49:56;;;;;;;9.90;5.68;;;;;15.50;101730.00;;;;5010526;28;20936;-79
2022/11/29 10:52:24;;;;;;;10.07;5.63;;;;;15.50;101731.00;;;;5015932;28;20228;-78
2022/11/29 10:54:57;;;;;;;10.57;5.78;;;;;15.50;101735.00;;;;5009760;28;20229;-79
2022/11/29 10:57:24;;;;;;;9.15;6.03;;;;;15.50;101729.00;;;;5017907;28;20189;-78
2022/11/29 11:00:03;;;;;;;9.15;5.68;;;;;15.50;101722.00;;;;5009360;28;20595;-78
2022/11/29 11:02:33;;;;;;;11.80;6.05;;;;;15.60;101724.00;;;;5013154;28;20213;-78
2022/11/29 11:05:01;;;;;;;10.93;5.82;;;;;15.60;101730.00;;;;5016125;28;20196;-78
2022/11/29 11:07:31;;;;;;;11.25;5.93;;;;;15.60;101727.00;;;;5027622;28;20577;-78
2022/11/29 11:10:01;;;;;;;9.10;5.88;;;;;15.60;101728.00;;;;5025131;28;20479;-78
2022/11/29 11:12:31;;;;;;;9.32;5.78;;;;;15.60;101730.00;;;;5029198;28;20200;-78
2022/11/29 11:15:25;;;;;;;13.52;6.78;;;;;15.50;101732.00;;;;5028685;28;20230;-78
2022/11/29 11:17:59;;;;;;;12.30;5.32;;;;;15.50;101730.00;;;;5014167;28;20235;-78
2022/11/29 11:20:29;;;;;;;8.90;5.43;;;;;15.60;101724.00;;;;5015295;28;20201;-78
2022/11/29 11:22:59;;;;;;;10.65;5.90;;;;;15.60;101730.00;;;;5011147;28;20212;-78
2022/11/29 11:25:29;;;;;;;9.68;5.68;;;;;15.60;101727.00;;;;5026831;28;20204;-78
2022/11/29 11:27:57;;;;;;;10.48;6.68;;;;;15.60;101736.00;;;;5009136;28;20583;-78
2022/11/29 11:30:27;;;;;;;9.57;5.13;;;;;15.60;101735.00;;;;5008525;28;20201;-77
2022/11/29 11:33:17;;;;;;;9.98;5.43;;;;;15.60;101734.00;;;;5019440;28;20207;-78
2022/11/29 11:35:44;;;;;;;10.27;5.78;;;;;15.70;101734.00;;;;5020671;28;20232;-78
2022/11/29 11:38:16;;;;;;;12.13;6.28;;;;;15.70;101738.00;;;;5029028;28;20537;-78
2022/11/29 11:40:44;;;;;;;10.98;6.35;;;;;15.70;101747.00;;;;5026069;28;20788;-77
2022/11/29 11:43:22;;;;;;;10.65;6.47;;;;;15.60;101744.00;;;;5009570;28;20217;-78
2022/11/29 11:45:53;;;;;;;11.00;5.72;;;;;15.70;101755.00;;;;5009184;28;20192;-78
2022/11/29 11:48:22;;;;;;;11.35;6.13;;;;;15.70;101756.00;;;;5009599;28;20240;-77
2022/11/29 11:50:55;;;;;;;10.45;5.88;;;;;15.70;101751.00;;;;5008707;28;20259;-78
2022/11/29 11:53:25;;;;;;;9.70;5.82;;;;;15.80;101756.00;;;;5025547;28;20204;-77
2022/11/29 11:55:59;;;;;;;13.45;5.85;;;;;15.70;101756.00;;;;5032590;28;20200;-78
2022/11/29 11:58:29;;;;;;;11.80;6.15;;;;;15.80;101755.00;;;;5013748;28;20220;-77
2022/11/29 12:00:58;;;;;;;11.65;6.63;;;;;15.80;101754.00;;;;5012449;28;20204;-77
2022/11/29 12:03:36;;;;;;;10.77;6.40;;;;;15.80;101752.00;;;;5011533;28;20216;-78
2022/11/29 12:06:34;;;;;;;10.98;7.38;;;;;15.80;101755.00;;;;5012229;28;20199;-78
2022/11/29 12:09:06;;;;;;;11.65;6.82;;;;;15.90;101752.00;;;;4987195;28;20651;-78
2022/11/29 12:11:41;;;;;;;12.10;6.82;;;;;15.90;101759.00;;;;5015440;28;20192;-78
2022/11/29 12:14:15;;;;;;;13.52;7.30;;;;;15.90;101752.00;;;;5018685;28;20817;-78
2022/11/29 12:16:45;;;;;;;11.55;6.18;;;;;15.90;101761.00;;;;5023078;28;20204;-78
2022/11/29 12:19:17;;;;;;;11.35;6.47;;;;;15.90;101753.00;;;;5015712;28;20212;-78
2022/11/29 12:21:51;;;;;;;11.52;6.50;;;;;16.00;101760.00;;;;5012266;28;20299;-78
2022/11/29 12:24:26;;;;;;;13.20;7.68;;;;;16.00;101761.00;;;;5012834;28;20197;-79
2022/11/29 12:26:56;;;;;;;12.98;6.68;;;;;16.00;101769.00;;;;5011711;28;20211;-78
2022/11/29 12:29:27;;;;;;;11.02;6.20;;;;;16.00;101767.00;;;;5019541;28;20208;-78
2022/11/29 12:32:06;;;;;;;11.63;7.43;;;;;16.00;101769.00;;;;5011157;28;20208;-77
2022/11/29 12:34:50;;;;;;;13.23;7.03;;;;;16.00;101780.00;;;;5013262;28;20236;-78
2022/11/29 12:37:21;;;;;;;13.00;6.88;;;;;16.00;101786.00;;;;5018118;28;20201;-78
2022/11/29 12:39:55;;;;;;;9.48;6.38;;;;;16.00;101791.00;;;;5019165;28;20201;-77
2022/11/29 12:42:34;;;;;;;11.35;7.22;;;;;15.90;101785.00;;;;5015645;28;20204;-77
2022/11/29 12:45:14;;;;;;;12.88;6.82;;;;;16.00;101792.00;;;;5014993;28;20200;-77
2022/11/29 12:47:50;;;;;;;13.93;7.05;;;;;16.00;101792.00;;;;5018030;28;20196;-77
2022/11/29 12:50:30;;;;;;;12.98;6.97;;;;;16.00;101798.00;;;;5013482;28;20197;-77